Share

Oshima Airport, Japan

9:10 AM JST on April 24, 2014 (GMT +0900)
Oshima (RJTO) Elev 135 ft | 34.78 °N, 139.36 °E | Change Station

Current weather conditions updated 10 minutes ago

Scattered Clouds
Scattered Clouds
61 °F
Feels Like 61 °F
N
12
Wind Variable Wind from NE
Sunrise 5:00 AM
Sunset 6:21 PM
Moon Waning Crescent

Today is forecast to be Cooler than yesterday.

Pressure 30.24 in
Visibility 6.2 miles
Clouds Scattered Clouds 2500 ft
Dew Point 50 °F
Humidity 68%
Rainfall 0.00 in
Snow Depth Not available.
UV 0 out of 16
Pollen Not available.
Air Quality Not available.
Flu Activity Not available.
METAR RJTO 240000Z 05010KT 010V080 9999 SCT025 16/10 Q1024

More Conditions Fewer Conditions

Pressure 30.24 in
Visibility 6.2 miles
Clouds Scattered Clouds 2500 ft
Dew Point 50 °F
Humidity 68%
Rainfall 0.00 in
Snow Depth Not available.
UV 0 out of 16
Pollen Not available.
Air Quality Not available.
Flu Activity Not available.
METAR RJTO 240000Z 05010KT 010V080 9999 SCT025 16/10 Q1024

More Conditions Fewer Conditions

10-Day Weather Forecast

Almanac

Astronomy

Apr. 24, 2014 Rise Set
Actual Time 5:00 AM JST 6:21 PM JST
Civil Twilight 4:34 AM JST 6:48 PM JST
Nautical Twilight 4:02 AM JST 7:19 PM JST
Astronomical Twilight 3:29 AM JST 7:52 PM JST
Moon 1:33 AM JST 1:07 PM JST
Length of Visible Light 14h 13m
Length of Day
13h 20m
Tomorrow will be 1m 58s longer.
Waning Crescent, 31% of the Moon is Illuminated
Apr 23
Waning Crescent
Apr 29
New
May 6
First Quarter
May 14
Full
May 21
Last Quarter

Yesterday's Extremes

Country Highs Country Lows

Community

  • Nestled In
    Nestled In
  • Stunning Sunrise
    Stunning Sunrise
  • spring flowers
    spring flowers
  • Earth Day Spectrum Ove' Blue
    Earth Day Spectrum Ove' Blue
  • BARN B&W
    BARN B&W

WunderPhotos

Upload Photos

1,704,461 photos uploaded!

WunderBlogs® & News

Nearby

Snow Depth

Not available.

Coastal Water Temperatures

Place Temperature
No Stations Reporting

Earthquake Activity

City Distance Mag. Time & Date
No recent earthquake activity has been reported nearby.
Minimum magnitude displayed is 2.5.

Nearby Weather Stations

There are no personal weather stations in this area.

What do you think?

We're not finished. Please let us know what you like, what you don't like, and what you are still missing.